Fremont, Utah
Current Conditions -  °F | °C
As of 1:13 PM on Thursday 18 Dec 2014 (Local Time) from KBCE Reporting Station
Overcast Overcast  
Wind Chill: 21°   Ceiling: 3000
Heat Index: 30°   Visibility: 10mi
Dew Point: 19°   Wind: 12mph
Humidity: 64%   Direction: 300°WNW
Pressure: 30.1"   Gusts: NA
Location:  38.4257°N, 111.707°W
Report Text: KBCE 182013Z AUTO 30010KT 10SM OVC030 M01/M07 A3010 RMK AO2 T10111072
Loading
Personal Weather Stations






























Interactive Weather Map New forecast layout! Learn more

10-Day Weather Forecast

Advertisements
Track Severe Weather on mobile